sensor_id;sensor_type;location;lat;lon;timestamp;pressure;altitude;pressure_sealevel;temperature;humidity
82746;BME280;72484;50.004;14.356;2023-11-21T00:01:03;97337.75;;;9.71;70.23
82746;BME280;72484;50.004;14.356;2023-11-21T00:05:01;97333.45;;;9.66;70.44
82746;BME280;72484;50.004;14.356;2023-11-21T00:08:59;97331.36;;;9.67;70.50
82746;BME280;72484;50.004;14.356;2023-11-21T00:12:57;97331.77;;;9.66;70.62
82746;BME280;72484;50.004;14.356;2023-11-21T00:16:54;97328.64;;;9.61;70.53
82746;BME280;72484;50.004;14.356;2023-11-21T00:20:51;97324.73;;;9.56;70.95
82746;BME280;72484;50.004;14.356;2023-11-21T00:25:09;97327.56;;;9.58;71.01
82746;BME280;72484;50.004;14.356;2023-11-21T00:28:27;97335.16;;;9.56;71.10
82746;BME280;72484;50.004;14.356;2023-11-21T00:32:24;97341.66;;;9.57;70.88
82746;BME280;72484;50.004;14.356;2023-11-21T00:36:22;97339.91;;;9.57;70.96
82746;BME280;72484;50.004;14.356;2023-11-21T00:40:19;97339.79;;;9.56;71.01
82746;BME280;72484;50.004;14.356;2023-11-21T00:44:17;97344.39;;;9.57;71.19
82746;BME280;72484;50.004;14.356;2023-11-21T00:48:14;97346.42;;;9.59;71.37
82746;BME280;72484;50.004;14.356;2023-11-21T00:52:11;97340.97;;;9.62;71.61
82746;BME280;72484;50.004;14.356;2023-11-21T00:56:10;97338.64;;;9.65;71.53
82746;BME280;72484;50.004;14.356;2023-11-21T01:00:10;97336.90;;;9.69;71.49
82746;BME280;72484;50.004;14.356;2023-11-21T01:04:11;97334.23;;;9.71;71.34
82746;BME280;72484;50.004;14.356;2023-11-21T01:08:09;97341.05;;;9.68;71.41
82746;BME280;72484;50.004;14.356;2023-11-21T01:12:07;97339.34;;;9.65;71.16
82746;BME280;72484;50.004;14.356;2023-11-21T01:16:07;97342.89;;;9.61;71.27
82746;BME280;72484;50.004;14.356;2023-11-21T01:20:07;97341.17;;;9.59;71.33
82746;BME280;72484;50.004;14.356;2023-11-21T01:24:09;97341.02;;;9.59;71.22
82746;BME280;72484;50.004;14.356;2023-11-21T01:28:06;97338.91;;;9.55;71.31
82746;BME280;72484;50.004;14.356;2023-11-21T01:32:06;97336.34;;;9.58;71.30
82746;BME280;72484;50.004;14.356;2023-11-21T01:36:23;97335.80;;;9.61;71.14
82746;BME280;72484;50.004;14.356;2023-11-21T01:39:41;97341.51;;;9.65;71.06
82746;BME280;72484;50.004;14.356;2023-11-21T01:43:40;97342.40;;;9.69;70.97
82746;BME280;72484;50.004;14.356;2023-11-21T01:47:39;97338.04;;;9.69;70.74
82746;BME280;72484;50.004;14.356;2023-11-21T01:51:57;97341.52;;;9.69;70.65
82746;BME280;72484;50.004;14.356;2023-11-21T01:55:17;97344.45;;;9.58;70.74
82746;BME280;72484;50.004;14.356;2023-11-21T01:59:17;97346.27;;;9.52;70.84
82746;BME280;72484;50.004;14.356;2023-11-21T02:03:15;97344.52;;;9.46;71.11
82746;BME280;72484;50.004;14.356;2023-11-21T02:07:12;97346.41;;;9.48;71.27
82746;BME280;72484;50.004;14.356;2023-11-21T02:11:09;97346.89;;;9.47;71.47
82746;BME280;72484;50.004;14.356;2023-11-21T02:15:10;97352.70;;;9.54;71.26
82746;BME280;72484;50.004;14.356;2023-11-21T02:19:12;97346.69;;;9.57;71.10
82746;BME280;72484;50.004;14.356;2023-11-21T02:23:17;97344.41;;;9.60;71.22
82746;BME280;72484;50.004;14.356;2023-11-21T02:27:14;97340.76;;;9.60;70.82
82746;BME280;72484;50.004;14.356;2023-11-21T02:31:36;97340.61;;;9.60;70.83
82746;BME280;72484;50.004;14.356;2023-11-21T02:34:54;97346.08;;;9.60;70.75
82746;BME280;72484;50.004;14.356;2023-11-21T02:38:51;97344.88;;;9.61;70.81
82746;BME280;72484;50.004;14.356;2023-11-21T02:42:49;97344.25;;;9.67;70.74
82746;BME280;72484;50.004;14.356;2023-11-21T02:46:47;97345.33;;;9.78;70.81
82746;BME280;72484;50.004;14.356;2023-11-21T02:51:04;97351.27;;;9.84;70.30
82746;BME280;72484;50.004;14.356;2023-11-21T02:54:22;97350.40;;;9.85;70.21
82746;BME280;72484;50.004;14.356;2023-11-21T02:58:21;97348.14;;;9.87;70.12
82746;BME280;72484;50.004;14.356;2023-11-21T03:02:18;97344.67;;;9.84;69.86
82746;BME280;72484;50.004;14.356;2023-11-21T03:06:15;97345.27;;;9.82;69.87
82746;BME280;72484;50.004;14.356;2023-11-21T03:10:13;97345.36;;;9.80;70.08
82746;BME280;72484;50.004;14.356;2023-11-21T03:14:10;97348.08;;;9.80;69.84
82746;BME280;72484;50.004;14.356;2023-11-21T03:18:08;97340.30;;;9.78;69.73
82746;BME280;72484;50.004;14.356;2023-11-21T03:22:06;97339.52;;;9.70;69.75
82746;BME280;72484;50.004;14.356;2023-11-21T03:26:11;97346.70;;;9.64;69.63
82746;BME280;72484;50.004;14.356;2023-11-21T03:30:11;97339.42;;;9.60;69.84
82746;BME280;72484;50.004;14.356;2023-11-21T03:34:14;97345.05;;;9.55;70.00
82746;BME280;72484;50.004;14.356;2023-11-21T03:38:12;97347.05;;;9.55;69.73
82746;BME280;72484;50.004;14.356;2023-11-21T03:42:29;97355.42;;;9.53;70.01
82746;BME280;72484;50.004;14.356;2023-11-21T03:45:48;97351.12;;;9.53;70.26
82746;BME280;72484;50.004;14.356;2023-11-21T03:49:46;97359.33;;;9.54;70.20
82746;BME280;72484;50.004;14.356;2023-11-21T03:53:44;97362.00;;;9.56;70.21
82746;BME280;72484;50.004;14.356;2023-11-21T03:57:42;97361.30;;;9.55;70.08
82746;BME280;72484;50.004;14.356;2023-11-21T04:01:40;97362.72;;;9.49;70.33
82746;BME280;72484;50.004;14.356;2023-11-21T04:05:40;97365.33;;;9.37;70.29
82746;BME280;72484;50.004;14.356;2023-11-21T04:10:18;97367.52;;;9.33;70.50
82746;BME280;72484;50.004;14.356;2023-11-21T04:14:17;97369.24;;;9.36;70.54
82746;BME280;72484;50.004;14.356;2023-11-21T04:18:15;97367.84;;;9.40;70.66
82746;BME280;72484;50.004;14.356;2023-11-21T04:22:13;97369.59;;;9.47;70.40
82746;BME280;72484;50.004;14.356;2023-11-21T04:26:10;97367.20;;;9.47;70.29
82746;BME280;72484;50.004;14.356;2023-11-21T04:30:09;97369.05;;;9.46;70.62
82746;BME280;72484;50.004;14.356;2023-11-21T04:34:27;97364.80;;;9.48;70.47
82746;BME280;72484;50.004;14.356;2023-11-21T04:37:44;97367.95;;;9.45;70.56
82746;BME280;72484;50.004;14.356;2023-11-21T04:41:42;97366.55;;;9.41;70.75
82746;BME280;72484;50.004;14.356;2023-11-21T04:45:43;97365.81;;;9.36;70.75
82746;BME280;72484;50.004;14.356;2023-11-21T04:49:45;97370.02;;;9.30;70.81
82746;BME280;72484;50.004;14.356;2023-11-21T04:53:44;97373.13;;;9.30;70.93
82746;BME280;72484;50.004;14.356;2023-11-21T04:57:42;97376.70;;;9.24;71.08
82746;BME280;72484;50.004;14.356;2023-11-21T05:01:40;97379.71;;;9.17;71.19
82746;BME280;72484;50.004;14.356;2023-11-21T05:05:40;97385.71;;;9.14;71.45
82746;BME280;72484;50.004;14.356;2023-11-21T05:09:38;97382.73;;;9.18;71.25
82746;BME280;72484;50.004;14.356;2023-11-21T05:13:39;97382.70;;;9.22;71.40
82746;BME280;72484;50.004;14.356;2023-11-21T05:17:37;97384.55;;;9.27;71.33
82746;BME280;72484;50.004;14.356;2023-11-21T05:21:37;97382.83;;;9.38;71.24
82746;BME280;72484;50.004;14.356;2023-11-21T05:25:34;97389.52;;;9.46;71.13
82746;BME280;72484;50.004;14.356;2023-11-21T05:29:32;97394.99;;;9.47;70.91
82746;BME280;72484;50.004;14.356;2023-11-21T05:33:31;97390.88;;;9.38;70.91
82746;BME280;72484;50.004;14.356;2023-11-21T05:37:53;97400.61;;;9.37;71.25
82746;BME280;72484;50.004;14.356;2023-11-21T05:41:18;97402.67;;;9.30;71.35
82746;BME280;72484;50.004;14.356;2023-11-21T05:44:44;97401.19;;;9.26;71.51
82746;BME280;72484;50.004;14.356;2023-11-21T05:48:42;97405.23;;;9.19;71.73
82746;BME280;72484;50.004;14.356;2023-11-21T05:52:40;97399.69;;;9.10;71.65
82746;BME280;72484;50.004;14.356;2023-11-21T05:56:38;97409.45;;;9.03;71.86
82746;BME280;72484;50.004;14.356;2023-11-21T06:00:36;97407.59;;;8.99;72.08
82746;BME280;72484;50.004;14.356;2023-11-21T06:04:33;97411.13;;;8.95;72.26
82746;BME280;72484;50.004;14.356;2023-11-21T06:08:31;97408.46;;;8.92;72.23
82746;BME280;72484;50.004;14.356;2023-11-21T06:12:29;97418.33;;;8.89;72.57
82746;BME280;72484;50.004;14.356;2023-11-21T06:16:27;97421.07;;;8.87;72.88
82746;BME280;72484;50.004;14.356;2023-11-21T06:20:25;97423.48;;;8.83;72.63
82746;BME280;72484;50.004;14.356;2023-11-21T06:24:23;97428.13;;;8.80;73.02
82746;BME280;72484;50.004;14.356;2023-11-21T06:28:20;97427.73;;;8.78;73.23
82746;BME280;72484;50.004;14.356;2023-11-21T06:32:18;97436.85;;;8.74;73.34
82746;BME280;72484;50.004;14.356;2023-11-21T06:36:16;97438.10;;;8.75;73.44
82746;BME280;72484;50.004;14.356;2023-11-21T06:40:13;97438.73;;;8.75;73.23
82746;BME280;72484;50.004;14.356;2023-11-21T06:44:11;97448.11;;;8.77;73.26
82746;BME280;72484;50.004;14.356;2023-11-21T06:48:09;97455.48;;;8.83;73.39
82746;BME280;72484;50.004;14.356;2023-11-21T06:52:08;97455.55;;;8.82;73.25
82746;BME280;72484;50.004;14.356;2023-11-21T06:56:17;97459.54;;;8.80;73.23
82746;BME280;72484;50.004;14.356;2023-11-21T07:00:21;97454.95;;;8.77;73.43
82746;BME280;72484;50.004;14.356;2023-11-21T07:03:53;97454.91;;;8.73;73.73
82746;BME280;72484;50.004;14.356;2023-11-21T07:07:50;97461.17;;;8.74;73.60
82746;BME280;72484;50.004;14.356;2023-11-21T07:11:50;97463.01;;;8.75;73.58
82746;BME280;72484;50.004;14.356;2023-11-21T07:15:48;97472.08;;;8.75;73.34
82746;BME280;72484;50.004;14.356;2023-11-21T07:19:46;97473.98;;;8.64;73.61
82746;BME280;72484;50.004;14.356;2023-11-21T07:23:44;97470.02;;;8.61;73.92
82746;BME280;72484;50.004;14.356;2023-11-21T07:27:42;97477.16;;;8.64;74.17
82746;BME280;72484;50.004;14.356;2023-11-21T07:31:59;97476.79;;;8.72;74.11
82746;BME280;72484;50.004;14.356;2023-11-21T07:35:19;97481.77;;;8.78;73.87
82746;BME280;72484;50.004;14.356;2023-11-21T07:39:17;97483.75;;;8.89;73.69
82746;BME280;72484;50.004;14.356;2023-11-21T07:43:33;97481.14;;;8.97;73.58
82746;BME280;72484;50.004;14.356;2023-11-21T07:46:52;97480.07;;;9.01;73.46
82746;BME280;72484;50.004;14.356;2023-11-21T07:50:53;97480.21;;;9.03;73.33
82746;BME280;72484;50.004;14.356;2023-11-21T07:54:51;97483.16;;;9.12;73.31
82746;BME280;72484;50.004;14.356;2023-11-21T07:58:51;97488.98;;;9.21;73.17
82746;BME280;72484;50.004;14.356;2023-11-21T08:03:28;97489.63;;;9.28;72.88
82746;BME280;72484;50.004;14.356;2023-11-21T08:07:26;97488.87;;;9.34;72.84
82746;BME280;72484;50.004;14.356;2023-11-21T08:11:24;97485.34;;;9.37;72.71
82746;BME280;72484;50.004;14.356;2023-11-21T08:15:22;97488.73;;;9.40;72.14
82746;BME280;72484;50.004;14.356;2023-11-21T08:19:19;97489.55;;;9.45;72.23
82746;BME280;72484;50.004;14.356;2023-11-21T08:23:17;97495.45;;;9.47;72.24
82746;BME280;72484;50.004;14.356;2023-11-21T08:27:16;97492.33;;;9.48;72.17
82746;BME280;72484;50.004;14.356;2023-11-21T08:31:15;97496.39;;;9.56;71.82
82746;BME280;72484;50.004;14.356;2023-11-21T08:35:12;97500.42;;;9.58;71.55
82746;BME280;72484;50.004;14.356;2023-11-21T08:39:10;97499.91;;;9.62;71.88
82746;BME280;72484;50.004;14.356;2023-11-21T08:43:08;97502.21;;;9.63;71.50
82746;BME280;72484;50.004;14.356;2023-11-21T08:47:07;97506.65;;;9.65;71.45
82746;BME280;72484;50.004;14.356;2023-11-21T08:51:05;97509.90;;;9.58;71.35
82746;BME280;72484;50.004;14.356;2023-11-21T08:55:04;97511.61;;;9.55;71.41
82746;BME280;72484;50.004;14.356;2023-11-21T08:59:05;97514.67;;;9.51;71.55
82746;BME280;72484;50.004;14.356;2023-11-21T09:03:04;97525.76;;;9.51;71.63
82746;BME280;72484;50.004;14.356;2023-11-21T09:07:05;97526.61;;;9.52;71.60
82746;BME280;72484;50.004;14.356;2023-11-21T09:11:02;97532.02;;;9.56;71.63
82746;BME280;72484;50.004;14.356;2023-11-21T09:15:01;97540.30;;;9.54;71.55
82746;BME280;72484;50.004;14.356;2023-11-21T09:18:59;97543.25;;;9.53;71.67
82746;BME280;72484;50.004;14.356;2023-11-21T09:22:56;97540.83;;;9.67;71.65
82746;BME280;72484;50.004;14.356;2023-11-21T09:26:53;97542.30;;;9.78;71.53
82746;BME280;72484;50.004;14.356;2023-11-21T09:30:51;97544.95;;;9.83;71.02
82746;BME280;72484;50.004;14.356;2023-11-21T09:34:49;97548.77;;;9.77;70.98
82746;BME280;72484;50.004;14.356;2023-11-21T09:38:48;97550.25;;;9.72;70.88
82746;BME280;72484;50.004;14.356;2023-11-21T09:43:27;97553.64;;;9.69;70.87
82746;BME280;72484;50.004;14.356;2023-11-21T09:47:04;97557.52;;;9.61;70.89
82746;BME280;72484;50.004;14.356;2023-11-21T09:51:07;97560.38;;;9.64;71.07
82746;BME280;72484;50.004;14.356;2023-11-21T09:55:10;97564.27;;;9.65;70.88
82746;BME280;72484;50.004;14.356;2023-11-21T09:59:15;97563.66;;;9.69;70.85
82746;BME280;72484;50.004;14.356;2023-11-21T10:03:15;97562.77;;;9.70;70.77
82746;BME280;72484;50.004;14.356;2023-11-21T10:07:14;97564.77;;;9.71;70.98
82746;BME280;72484;50.004;14.356;2023-11-21T10:11:16;97565.73;;;9.77;70.75
82746;BME280;72484;50.004;14.356;2023-11-21T10:15:35;97558.95;;;9.79;71.04
82746;BME280;72484;50.004;14.356;2023-11-21T10:19:12;97560.08;;;9.86;70.91
82746;BME280;72484;50.004;14.356;2023-11-21T10:23:12;97565.45;;;9.90;70.71
82746;BME280;72484;50.004;14.356;2023-11-21T10:27:13;97563.19;;;9.93;70.58
82746;BME280;72484;50.004;14.356;2023-11-21T10:31:12;97563.15;;;9.96;70.65
82746;BME280;72484;50.004;14.356;2023-11-21T10:35:11;97563.08;;;10.03;70.30
82746;BME280;72484;50.004;14.356;2023-11-21T10:39:11;97563.77;;;10.05;70.10
82746;BME280;72484;50.004;14.356;2023-11-21T10:43:13;97563.98;;;10.11;70.10
82746;BME280;72484;50.004;14.356;2023-11-21T10:47:11;97560.08;;;10.19;69.57
82746;BME280;72484;50.004;14.356;2023-11-21T10:51:10;97561.56;;;10.28;69.48
82746;BME280;72484;50.004;14.356;2023-11-21T10:55:20;97566.45;;;10.27;69.17
82746;BME280;72484;50.004;14.356;2023-11-21T10:59:19;97559.48;;;10.29;69.02
82746;BME280;72484;50.004;14.356;2023-11-21T11:03:20;97559.94;;;10.37;68.85
82746;BME280;72484;50.004;14.356;2023-11-21T11:07:18;97551.79;;;10.38;68.27
82746;BME280;72484;50.004;14.356;2023-11-21T11:11:18;97550.59;;;10.45;68.38
82746;BME280;72484;50.004;14.356;2023-11-21T11:15:17;97551.48;;;10.38;68.10
82746;BME280;72484;50.004;14.356;2023-11-21T11:19:16;97547.48;;;10.33;68.06
82746;BME280;72484;50.004;14.356;2023-11-21T11:23:49;97548.66;;;10.40;67.92
82746;BME280;72484;50.004;14.356;2023-11-21T11:26:58;97546.37;;;10.44;67.42
82746;BME280;72484;50.004;14.356;2023-11-21T11:31:27;97545.79;;;10.47;67.06
82746;BME280;72484;50.004;14.356;2023-11-21T11:34:41;97543.41;;;10.58;66.15
82746;BME280;72484;50.004;14.356;2023-11-21T11:38:46;97538.55;;;10.57;65.42
82746;BME280;72484;50.004;14.356;2023-11-21T11:42:58;97540.36;;;10.64;64.14
82746;BME280;72484;50.004;14.356;2023-11-21T11:46:56;97541.69;;;10.60;63.80
82746;BME280;72484;50.004;14.356;2023-11-21T11:51:09;97544.59;;;10.59;63.02
82746;BME280;72484;50.004;14.356;2023-11-21T11:55:11;97547.80;;;10.51;62.27
82746;BME280;72484;50.004;14.356;2023-11-21T11:59:14;97546.21;;;10.45;61.79
82746;BME280;72484;50.004;14.356;2023-11-21T12:02:51;97549.11;;;10.35;62.05
82746;BME280;72484;50.004;14.356;2023-11-21T12:07:40;97548.11;;;10.19;62.82
82746;BME280;72484;50.004;14.356;2023-11-21T12:11:38;97554.84;;;10.06;63.03
82746;BME280;72484;50.004;14.356;2023-11-21T12:16:05;97553.88;;;9.92;63.23
82746;BME280;72484;50.004;14.356;2023-11-21T12:19:43;97558.05;;;9.80;63.93
82746;BME280;72484;50.004;14.356;2023-11-21T12:24:06;97557.70;;;9.76;64.49
82746;BME280;72484;50.004;14.356;2023-11-21T12:27:27;97557.14;;;9.76;64.51
82746;BME280;72484;50.004;14.356;2023-11-21T12:31:24;97561.13;;;9.76;64.09
82746;BME280;72484;50.004;14.356;2023-11-21T12:35:24;97564.80;;;9.75;63.60
82746;BME280;72484;50.004;14.356;2023-11-21T12:39:22;97568.23;;;9.75;62.72
82746;BME280;72484;50.004;14.356;2023-11-21T12:43:19;97571.80;;;9.68;62.52
82746;BME280;72484;50.004;14.356;2023-11-21T12:47:22;97566.56;;;9.65;63.00
82746;BME280;72484;50.004;14.356;2023-11-21T12:51:23;97562.61;;;9.63;63.32
82746;BME280;72484;50.004;14.356;2023-11-21T12:55:41;97565.52;;;9.67;64.57
82746;BME280;72484;50.004;14.356;2023-11-21T12:59:40;97568.65;;;9.65;64.07
82746;BME280;72484;50.004;14.356;2023-11-21T13:03:39;97566.04;;;9.62;64.91
82746;BME280;72484;50.004;14.356;2023-11-21T13:07:43;97569.63;;;9.60;65.89
82746;BME280;72484;50.004;14.356;2023-11-21T13:11:43;97572.39;;;9.64;66.83
82746;BME280;72484;50.004;14.356;2023-11-21T13:15:46;97580.09;;;9.67;67.35
82746;BME280;72484;50.004;14.356;2023-11-21T13:19:44;97581.88;;;9.63;67.68
82746;BME280;72484;50.004;14.356;2023-11-21T13:23:42;97583.29;;;9.57;68.04
82746;BME280;72484;50.004;14.356;2023-11-21T13:27:41;97582.65;;;9.48;68.29
82746;BME280;72484;50.004;14.356;2023-11-21T13:31:38;97578.64;;;9.52;68.17
82746;BME280;72484;50.004;14.356;2023-11-21T13:35:36;97589.67;;;9.44;68.37
82746;BME280;72484;50.004;14.356;2023-11-21T13:39:40;97596.32;;;9.41;68.67
82746;BME280;72484;50.004;14.356;2023-11-21T13:43:43;97602.83;;;9.34;68.92
82746;BME280;72484;50.004;14.356;2023-11-21T13:47:46;97606.10;;;9.31;69.11
82746;BME280;72484;50.004;14.356;2023-11-21T13:51:44;97608.20;;;9.28;69.50
82746;BME280;72484;50.004;14.356;2023-11-21T13:55:46;97616.80;;;9.27;69.74
82746;BME280;72484;50.004;14.356;2023-11-21T13:59:44;97621.02;;;9.29;70.36
82746;BME280;72484;50.004;14.356;2023-11-21T14:03:42;97622.63;;;9.26;70.17
82746;BME280;72484;50.004;14.356;2023-11-21T14:07:47;97627.92;;;9.19;70.50
82746;BME280;72484;50.004;14.356;2023-11-21T14:11:44;97630.23;;;9.19;71.04
82746;BME280;72484;50.004;14.356;2023-11-21T14:15:42;97639.16;;;9.18;71.08
82746;BME280;72484;50.004;14.356;2023-11-21T14:19:42;97645.46;;;9.15;71.51
82746;BME280;72484;50.004;14.356;2023-11-21T14:23:41;97650.93;;;9.06;71.94
82746;BME280;72484;50.004;14.356;2023-11-21T14:27:39;97649.61;;;8.99;72.48
82746;BME280;72484;50.004;14.356;2023-11-21T14:31:57;97655.85;;;8.95;73.09
82746;BME280;72484;50.004;14.356;2023-11-21T14:35:33;97663.27;;;8.91;73.36
82746;BME280;72484;50.004;14.356;2023-11-21T14:39:33;97660.88;;;8.88;73.62
82746;BME280;72484;50.004;14.356;2023-11-21T14:43:36;97659.38;;;8.88;73.96
82746;BME280;72484;50.004;14.356;2023-11-21T14:47:35;97663.26;;;8.89;74.20
82746;BME280;72484;50.004;14.356;2023-11-21T14:51:38;97668.27;;;8.90;74.39
82746;BME280;72484;50.004;14.356;2023-11-21T14:55:55;97674.42;;;8.84;75.10
82746;BME280;72484;50.004;14.356;2023-11-21T14:59:59;97675.05;;;8.70;74.89
82746;BME280;72484;50.004;14.356;2023-11-21T15:04:06;97680.58;;;8.55;75.43
82746;BME280;72484;50.004;14.356;2023-11-21T15:08:12;97680.75;;;8.50;75.68
82746;BME280;72484;50.004;14.356;2023-11-21T15:12:20;97686.89;;;8.42;76.01
82746;BME280;72484;50.004;14.356;2023-11-21T15:16:22;97687.64;;;8.33;75.87
82746;BME280;72484;50.004;14.356;2023-11-21T15:20:21;97687.70;;;8.21;76.32
82746;BME280;72484;50.004;14.356;2023-11-21T15:24:20;97696.45;;;8.11;76.32
82746;BME280;72484;50.004;14.356;2023-11-21T15:28:17;97702.49;;;8.02;75.77
82746;BME280;72484;50.004;14.356;2023-11-21T15:32:17;97709.66;;;7.94;76.23
82746;BME280;72484;50.004;14.356;2023-11-21T15:36:15;97712.91;;;7.83;76.34
82746;BME280;72484;50.004;14.356;2023-11-21T15:40:13;97716.41;;;7.79;76.40
82746;BME280;72484;50.004;14.356;2023-11-21T15:44:12;97722.67;;;7.77;76.32
82746;BME280;72484;50.004;14.356;2023-11-21T15:48:09;97731.64;;;7.66;75.93
82746;BME280;72484;50.004;14.356;2023-11-21T15:52:09;97735.77;;;7.54;76.47
82746;BME280;72484;50.004;14.356;2023-11-21T15:56:07;97738.52;;;7.52;76.97
82746;BME280;72484;50.004;14.356;2023-11-21T16:00:10;97745.56;;;7.44;77.07
82746;BME280;72484;50.004;14.356;2023-11-21T16:04:13;97745.57;;;7.46;77.14
82746;BME280;72484;50.004;14.356;2023-11-21T16:08:12;97751.23;;;7.52;76.89
82746;BME280;72484;50.004;14.356;2023-11-21T16:12:10;97754.49;;;7.59;76.20
82746;BME280;72484;50.004;14.356;2023-11-21T16:16:08;97768.44;;;7.43;75.46
82746;BME280;72484;50.004;14.356;2023-11-21T16:20:09;97775.85;;;7.28;75.52
82746;BME280;72484;50.004;14.356;2023-11-21T16:24:09;97775.16;;;7.18;75.67
82746;BME280;72484;50.004;14.356;2023-11-21T16:28:07;97778.05;;;7.04;75.81
82746;BME280;72484;50.004;14.356;2023-11-21T16:32:05;97786.77;;;6.87;76.26
82746;BME280;72484;50.004;14.356;2023-11-21T16:36:04;97794.31;;;6.87;76.29
82746;BME280;72484;50.004;14.356;2023-11-21T16:40:02;97801.20;;;6.85;76.07
82746;BME280;72484;50.004;14.356;2023-11-21T16:44:12;97812.36;;;6.81;75.79
82746;BME280;72484;50.004;14.356;2023-11-21T16:48:16;97810.88;;;6.74;74.79
82746;BME280;72484;50.004;14.356;2023-11-21T16:51:51;97815.20;;;6.68;74.45
82746;BME280;72484;50.004;14.356;2023-11-21T16:55:49;97825.72;;;6.62;74.03
82746;BME280;72484;50.004;14.356;2023-11-21T16:59:48;97836.98;;;6.52;74.37
82746;BME280;72484;50.004;14.356;2023-11-21T17:03:51;97838.63;;;6.50;74.71
82746;BME280;72484;50.004;14.356;2023-11-21T17:07:25;97844.85;;;6.56;74.83
82746;BME280;72484;50.004;14.356;2023-11-21T17:11:23;97844.66;;;6.62;74.78
82746;BME280;72484;50.004;14.356;2023-11-21T17:15:22;97849.71;;;6.68;73.60
82746;BME280;72484;50.004;14.356;2023-11-21T17:19:19;97854.98;;;6.62;74.25
82746;BME280;72484;50.004;14.356;2023-11-21T17:23:16;97856.40;;;6.73;73.83
82746;BME280;72484;50.004;14.356;2023-11-21T17:27:14;97869.04;;;6.56;73.32
82746;BME280;72484;50.004;14.356;2023-11-21T17:31:11;97877.77;;;6.57;72.45
82746;BME280;72484;50.004;14.356;2023-11-21T17:35:09;97878.61;;;6.44;73.06
82746;BME280;72484;50.004;14.356;2023-11-21T17:39:07;97874.34;;;6.45;72.56
82746;BME280;72484;50.004;14.356;2023-11-21T17:43:06;97881.42;;;6.49;73.03
82746;BME280;72484;50.004;14.356;2023-11-21T17:47:07;97888.91;;;6.51;72.36
82746;BME280;72484;50.004;14.356;2023-11-21T17:51:06;97893.58;;;6.33;71.99
82746;BME280;72484;50.004;14.356;2023-11-21T17:55:05;97903.91;;;6.20;72.31
82746;BME280;72484;50.004;14.356;2023-11-21T17:59:02;97910.08;;;6.11;72.61
82746;BME280;72484;50.004;14.356;2023-11-21T18:03:02;97921.06;;;6.00;72.37
82746;BME280;72484;50.004;14.356;2023-11-21T18:07:01;97920.33;;;5.87;72.79
82746;BME280;72484;50.004;14.356;2023-11-21T18:11:00;97921.92;;;5.75;72.91
82746;BME280;72484;50.004;14.356;2023-11-21T18:15:01;97930.52;;;5.67;73.00
82746;BME280;72484;50.004;14.356;2023-11-21T18:18:58;97929.27;;;5.66;73.32
82746;BME280;72484;50.004;14.356;2023-11-21T18:22:55;97933.65;;;5.82;72.97
82746;BME280;72484;50.004;14.356;2023-11-21T18:26:52;97937.77;;;5.82;72.32
82746;BME280;72484;50.004;14.356;2023-11-21T18:30:49;97943.20;;;5.67;72.18
82746;BME280;72484;50.004;14.356;2023-11-21T18:34:50;97947.71;;;5.73;72.08
82746;BME280;72484;50.004;14.356;2023-11-21T18:38:51;97955.85;;;5.53;71.62
82746;BME280;72484;50.004;14.356;2023-11-21T18:42:50;97959.38;;;5.39;71.92
82746;BME280;72484;50.004;14.356;2023-11-21T18:46:51;97967.41;;;5.31;72.08
82746;BME280;72484;50.004;14.356;2023-11-21T18:50:50;97968.26;;;5.24;72.13
82746;BME280;72484;50.004;14.356;2023-11-21T18:54:50;97980.57;;;5.33;71.97
82746;BME280;72484;50.004;14.356;2023-11-21T18:58:49;97988.10;;;5.28;71.61
82746;BME280;72484;50.004;14.356;2023-11-21T19:02:46;97986.84;;;5.24;72.24
82746;BME280;72484;50.004;14.356;2023-11-21T19:06:45;97993.42;;;5.20;71.92
82746;BME280;72484;50.004;14.356;2023-11-21T19:10:47;97998.27;;;5.11;71.46
82746;BME280;72484;50.004;14.356;2023-11-21T19:14:44;98002.30;;;5.11;71.37
82746;BME280;72484;50.004;14.356;2023-11-21T19:18:44;98007.38;;;5.07;71.18
82746;BME280;72484;50.004;14.356;2023-11-21T19:22:41;98010.83;;;4.95;70.59
82746;BME280;72484;50.004;14.356;2023-11-21T19:26:39;98021.87;;;4.84;70.65
82746;BME280;72484;50.004;14.356;2023-11-21T19:30:36;98025.26;;;4.79;70.83
82746;BME280;72484;50.004;14.356;2023-11-21T19:34:36;98036.66;;;4.66;71.44
82746;BME280;72484;50.004;14.356;2023-11-21T19:38:35;98040.16;;;4.63;71.51
82746;BME280;72484;50.004;14.356;2023-11-21T19:42:35;98045.66;;;4.66;71.69
82746;BME280;72484;50.004;14.356;2023-11-21T19:46:35;98047.50;;;4.67;71.60
82746;BME280;72484;50.004;14.356;2023-11-21T19:50:34;98054.33;;;4.65;71.64
82746;BME280;72484;50.004;14.356;2023-11-21T19:54:31;98062.14;;;4.60;71.77
82746;BME280;72484;50.004;14.356;2023-11-21T19:58:29;98071.42;;;4.57;71.85
82746;BME280;72484;50.004;14.356;2023-11-21T20:02:47;98072.45;;;4.57;72.13
82746;BME280;72484;50.004;14.356;2023-11-21T20:06:27;98079.91;;;4.51;71.96
82746;BME280;72484;50.004;14.356;2023-11-21T20:10:25;98088.55;;;4.48;71.92
82746;BME280;72484;50.004;14.356;2023-11-21T20:14:24;98093.19;;;4.39;71.91
82746;BME280;72484;50.004;14.356;2023-11-21T20:18:23;98098.87;;;4.34;72.00
82746;BME280;72484;50.004;14.356;2023-11-21T20:22:21;98102.65;;;4.30;72.36
82746;BME280;72484;50.004;14.356;2023-11-21T20:26:23;98114.00;;;4.32;72.06
82746;BME280;72484;50.004;14.356;2023-11-21T20:30:20;98119.40;;;4.34;72.06
82746;BME280;72484;50.004;14.356;2023-11-21T20:34:19;98123.17;;;4.33;72.01
82746;BME280;72484;50.004;14.356;2023-11-21T20:38:19;98121.73;;;4.32;71.79
82746;BME280;72484;50.004;14.356;2023-11-21T20:42:39;98134.55;;;4.30;71.74
82746;BME280;72484;50.004;14.356;2023-11-21T20:45:56;98143.10;;;4.23;71.93
82746;BME280;72484;50.004;14.356;2023-11-21T20:50:13;98136.08;;;4.23;72.10
82746;BME280;72484;50.004;14.356;2023-11-21T20:53:30;98143.44;;;4.13;71.72
82746;BME280;72484;50.004;14.356;2023-11-21T20:57:28;98150.13;;;4.08;71.64
82746;BME280;72484;50.004;14.356;2023-11-21T21:01:25;98145.27;;;4.06;72.35